createdAt,value
2023-02-17T00:00:18.461Z,3.75
2023-02-17T00:00:47.878Z,3.81
2023-02-17T00:01:18.999Z,3.81
2023-02-17T00:01:51.367Z,3.81
2023-02-17T00:02:21.396Z,3.81
2023-02-17T00:02:53.268Z,3.81
2023-02-17T00:03:23.461Z,3.81
2023-02-17T00:03:54.473Z,3.71
2023-02-17T00:04:25.361Z,3.71
2023-02-17T00:04:55.742Z,3.71
2023-02-17T00:05:27.815Z,3.71
2023-02-17T00:05:58.215Z,3.71
2023-02-17T00:06:28.779Z,3.88
2023-02-17T00:06:59.935Z,3.88
2023-02-17T00:07:31.048Z,3.71
2023-02-17T00:08:01.779Z,3.71
2023-02-17T00:08:32.976Z,3.22
2023-02-17T00:09:04.118Z,2.88
2023-02-17T00:09:34.996Z,2.98
2023-02-17T00:10:06.863Z,3.00
2023-02-17T00:10:36.766Z,3.20
2023-02-17T00:11:07.848Z,3.29
2023-02-17T00:11:38.760Z,3.39
2023-02-17T00:12:10.774Z,3.39
2023-02-17T00:12:40.856Z,3.39
2023-02-17T00:13:12.403Z,3.39
2023-02-17T00:13:42.940Z,3.39
2023-02-17T00:14:14.124Z,3.22
2023-02-17T00:14:44.920Z,3.22
2023-02-17T00:15:17.334Z,3.31
2023-02-17T00:15:47.044Z,3.14
2023-02-17T00:16:17.944Z,3.24
2023-02-17T00:16:48.770Z,3.05
2023-02-17T00:17:19.935Z,3.15
2023-02-17T00:17:50.780Z,3.24
2023-02-17T00:18:21.795Z,3.24
2023-02-17T00:18:53.043Z,3.24
2023-02-17T00:19:25.180Z,3.34
2023-02-17T00:19:55.097Z,3.34
2023-02-17T00:20:26.465Z,3.34
2023-02-17T00:20:57.186Z,3.17
2023-02-17T00:21:28.158Z,3.17
2023-02-17T00:21:59.219Z,3.26
2023-02-17T00:22:30.117Z,3.26
2023-02-17T00:23:00.751Z,3.26
2023-02-17T00:23:32.768Z,3.26
2023-02-17T00:24:03.177Z,3.26
2023-02-17T00:24:34.718Z,3.08
2023-02-17T00:25:05.478Z,3.17
2023-02-17T00:25:36.183Z,3.17
2023-02-17T00:26:07.517Z,3.27
2023-02-17T00:26:38.112Z,3.27
2023-02-17T00:27:09.056Z,3.27
2023-02-17T00:27:39.967Z,3.27
2023-02-17T00:28:10.842Z,3.08
2023-02-17T00:28:42.212Z,3.37
2023-02-17T00:29:12.747Z,3.18
2023-02-17T00:29:43.828Z,3.37
2023-02-17T00:30:15.985Z,3.37
2023-02-17T00:30:46.101Z,3.37
2023-02-17T00:31:17.295Z,3.37
2023-02-17T00:31:48.313Z,3.37
2023-02-17T00:32:19.319Z,3.37
2023-02-17T00:32:50.283Z,3.18
2023-02-17T00:33:21.969Z,3.37
2023-02-17T00:33:52.120Z,3.37
2023-02-17T00:34:23.978Z,3.37
2023-02-17T00:34:54.163Z,3.18
2023-02-17T00:35:25.242Z,3.18
2023-02-17T00:35:55.848Z,2.98
2023-02-17T00:36:26.911Z,2.98
2023-02-17T00:36:58.318Z,3.27
2023-02-17T00:37:29.002Z,3.27
2023-02-17T00:38:00.078Z,3.27
2023-02-17T00:38:31.130Z,3.27
2023-02-17T00:39:01.926Z,3.17
2023-02-17T00:39:33.269Z,3.27
2023-02-17T00:40:05.012Z,3.27
2023-02-17T00:40:36.163Z,3.27
2023-02-17T00:41:05.873Z,3.27
2023-02-17T00:41:36.987Z,3.27
2023-02-17T00:42:08.181Z,3.27
2023-02-17T00:42:38.910Z,3.27
2023-02-17T00:43:10.580Z,3.18
2023-02-17T00:43:41.060Z,3.18
2023-02-17T00:44:15.012Z,3.18
2023-02-17T00:44:43.231Z,3.18
2023-02-17T00:45:15.505Z,3.18
2023-02-17T00:45:45.745Z,3.27
2023-02-17T00:46:16.457Z,3.27
2023-02-17T00:46:47.313Z,3.46
2023-02-17T00:47:18.369Z,3.27
2023-02-17T00:47:49.182Z,3.27
2023-02-17T00:48:20.356Z,3.27
2023-02-17T00:48:51.279Z,3.27
2023-02-17T00:49:21.932Z,3.27
2023-02-17T00:49:53.253Z,3.27
2023-02-17T00:50:24.532Z,3.08
2023-02-17T00:50:55.100Z,3.08
2023-02-17T00:51:26.451Z,3.27
2023-02-17T00:51:57.464Z,3.27
2023-02-17T00:52:28.065Z,3.27
2023-02-17T00:52:59.061Z,3.27
2023-02-17T00:53:30.208Z,3.27
2023-02-17T00:54:00.826Z,3.27
2023-02-17T00:54:32.588Z,3.27
2023-02-17T00:55:03.513Z,3.27
2023-02-17T00:55:33.903Z,3.27
2023-02-17T00:56:05.346Z,3.27
2023-02-17T00:56:35.925Z,3.27
2023-02-17T00:57:06.972Z,3.08
2023-02-17T00:57:37.947Z,3.08
2023-02-17T00:58:08.982Z,3.08
2023-02-17T00:58:40.305Z,3.08
2023-02-17T00:59:11.514Z,3.17
2023-02-17T00:59:42.626Z,3.17
2023-02-17T01:00:14.164Z,3.17
2023-02-17T01:00:44.252Z,3.17
2023-02-17T01:01:15.469Z,3.17
2023-02-17T01:01:46.001Z,3.17
2023-02-17T01:02:16.983Z,3.17
2023-02-17T01:02:48.264Z,3.37
2023-02-17T01:03:19.202Z,3.37
2023-02-17T01:03:50.236Z,3.17
2023-02-17T01:04:21.387Z,3.17
2023-02-17T01:04:54.492Z,3.27
2023-02-17T01:05:23.653Z,3.08
2023-02-17T01:05:55.436Z,3.17
2023-02-17T01:06:25.330Z,3.17
2023-02-17T01:06:56.928Z,3.37
2023-02-17T01:07:26.943Z,3.37
2023-02-17T01:07:58.543Z,3.17
2023-02-17T01:08:29.044Z,3.17
2023-02-17T01:09:00.066Z,3.17
2023-02-17T01:09:31.176Z,3.17
2023-02-17T01:10:03.025Z,3.17
2023-02-17T01:10:32.989Z,3.17
2023-02-17T01:11:04.101Z,3.17
2023-02-17T01:11:35.106Z,3.27
2023-02-17T01:12:06.153Z,3.08
2023-02-17T01:12:37.302Z,3.08
2023-02-17T01:13:08.025Z,3.08
2023-02-17T01:13:38.949Z,3.08
2023-02-17T01:14:10.312Z,3.27
2023-02-17T01:14:41.877Z,3.08
2023-02-17T01:15:13.085Z,3.08
2023-02-17T01:15:43.541Z,3.08
2023-02-17T01:16:14.607Z,3.08
2023-02-17T01:16:45.189Z,3.08
2023-02-17T01:17:16.717Z,3.08
2023-02-17T01:17:47.448Z,3.08
2023-02-17T01:18:18.250Z,3.08
2023-02-17T01:18:48.907Z,3.08
2023-02-17T01:19:20.445Z,3.08
2023-02-17T01:19:51.371Z,3.27
2023-02-17T01:20:23.324Z,3.08
2023-02-17T01:20:53.544Z,3.08
2023-02-17T01:21:24.014Z,3.27
2023-02-17T01:21:55.068Z,3.27
2023-02-17T01:22:26.146Z,3.27
2023-02-17T01:22:57.105Z,3.17
2023-02-17T01:23:28.184Z,3.17
2023-02-17T01:23:58.992Z,3.17
2023-02-17T01:24:30.336Z,3.37
2023-02-17T01:25:01.206Z,3.37
2023-02-17T01:25:32.712Z,3.08
2023-02-17T01:26:03.109Z,3.08
2023-02-17T01:26:34.048Z,3.08
2023-02-17T01:27:04.981Z,3.08
2023-02-17T01:27:36.112Z,3.27
2023-02-17T01:28:06.994Z,3.27
2023-02-17T01:28:38.094Z,3.27
2023-02-17T01:29:09.020Z,3.18
2023-02-17T01:29:40.256Z,3.18
2023-02-17T01:30:12.365Z,3.18
2023-02-17T01:30:42.450Z,2.98
2023-02-17T01:31:13.138Z,3.18
2023-02-17T01:31:44.077Z,2.98
2023-02-17T01:32:15.349Z,3.08
2023-02-17T01:32:45.982Z,3.27
2023-02-17T01:33:17.386Z,3.08
2023-02-17T01:33:47.935Z,3.08
2023-02-17T01:34:19.173Z,3.08
2023-02-17T01:34:50.274Z,3.08
2023-02-17T01:35:21.986Z,2.89
2023-02-17T01:35:52.013Z,3.17
2023-02-17T01:36:23.914Z,3.17
2023-02-17T01:36:54.141Z,3.17
2023-02-17T01:37:25.753Z,3.17
2023-02-17T01:37:59.180Z,3.17
2023-02-17T01:38:27.794Z,2.98
2023-02-17T01:38:58.029Z,3.17
2023-02-17T01:39:29.011Z,3.17
2023-02-17T01:40:00.707Z,3.17
2023-02-17T01:40:31.371Z,3.17
2023-02-17T01:41:02.209Z,3.37
2023-02-17T01:41:33.027Z,3.27
2023-02-17T01:42:04.419Z,3.27
2023-02-17T01:42:35.269Z,3.27
2023-02-17T01:43:06.552Z,3.27
2023-02-17T01:43:37.412Z,3.27
2023-02-17T01:44:08.399Z,3.27
2023-02-17T01:44:39.283Z,3.18
2023-02-17T01:45:11.023Z,3.18
2023-02-17T01:45:41.391Z,3.18
2023-02-17T01:46:12.104Z,3.18
2023-02-17T01:46:43.352Z,3.18
2023-02-17T01:47:14.041Z,3.18
2023-02-17T01:47:45.320Z,3.18
2023-02-17T01:48:16.426Z,3.18
2023-02-17T01:48:47.295Z,3.18
2023-02-17T01:49:18.093Z,3.18
2023-02-17T01:49:49.503Z,3.18
2023-02-17T01:50:20.680Z,3.18
2023-02-17T01:50:51.130Z,2.98
2023-02-17T01:51:22.058Z,2.98
2023-02-17T01:51:53.191Z,3.08
2023-02-17T01:52:24.522Z,3.27
2023-02-17T01:52:55.146Z,3.27
2023-02-17T01:53:26.510Z,3.27
2023-02-17T01:53:57.170Z,3.08
2023-02-17T01:54:28.735Z,3.08
2023-02-17T01:54:59.225Z,3.08
2023-02-17T01:55:30.976Z,3.08
2023-02-17T01:56:01.729Z,3.08
2023-02-17T01:56:32.511Z,3.08
2023-02-17T01:57:03.512Z,3.08
2023-02-17T01:57:34.145Z,3.27
2023-02-17T01:58:05.239Z,3.27
2023-02-17T01:58:36.856Z,3.27
2023-02-17T01:59:07.199Z,3.08
2023-02-17T01:59:38.257Z,3.08
2023-02-17T02:00:10.336Z,3.08
2023-02-17T02:00:40.217Z,3.08
2023-02-17T02:01:11.086Z,3.08
2023-02-17T02:01:42.536Z,3.08
2023-02-17T02:02:13.622Z,3.08
2023-02-17T02:02:44.555Z,3.08
2023-02-17T02:03:15.426Z,3.08
2023-02-17T02:03:46.382Z,3.08
2023-02-17T02:04:17.498Z,3.17
2023-02-17T02:04:48.360Z,3.17
2023-02-17T02:05:19.934Z,3.17
2023-02-17T02:05:50.505Z,3.17
2023-02-17T02:06:21.856Z,3.27
2023-02-17T02:06:52.455Z,3.08
2023-02-17T02:07:23.146Z,3.08
2023-02-17T02:07:55.400Z,3.08
2023-02-17T02:08:25.105Z,3.08
2023-02-17T02:08:57.569Z,3.08
2023-02-17T02:09:27.266Z,3.27
2023-02-17T02:09:58.748Z,3.08
2023-02-17T02:10:30.136Z,3.08
2023-02-17T02:11:00.180Z,3.08
2023-02-17T02:11:31.451Z,3.08
2023-02-17T02:12:02.862Z,3.08
2023-02-17T02:12:33.192Z,3.27
2023-02-17T02:13:04.279Z,3.27
2023-02-17T02:13:36.201Z,3.27
2023-02-17T02:14:06.306Z,3.27
2023-02-17T02:14:37.176Z,3.08
2023-02-17T02:15:09.281Z,3.08
2023-02-17T02:15:39.441Z,3.27
2023-02-17T02:16:10.188Z,3.08
2023-02-17T02:16:41.154Z,3.08
2023-02-17T02:17:12.591Z,3.08
2023-02-17T02:17:43.442Z,3.08
2023-02-17T02:18:14.322Z,3.27
2023-02-17T02:18:45.642Z,3.08
2023-02-17T02:19:16.388Z,3.27
2023-02-17T02:19:47.195Z,3.27
2023-02-17T02:20:18.849Z,3.27
2023-02-17T02:20:49.206Z,3.27
2023-02-17T02:21:20.509Z,3.37
2023-02-17T02:21:51.370Z,3.18
2023-02-17T02:22:22.500Z,3.18
2023-02-17T02:22:53.201Z,3.18
2023-02-17T02:23:24.547Z,3.37
2023-02-17T02:23:55.216Z,3.08
2023-02-17T02:24:26.260Z,3.27
2023-02-17T02:24:57.593Z,3.08
2023-02-17T02:25:28.945Z,3.08
2023-02-17T02:25:59.188Z,2.88
2023-02-17T02:26:30.352Z,3.18
2023-02-17T02:27:01.926Z,3.27
2023-02-17T02:27:32.291Z,3.27
2023-02-17T02:28:03.230Z,3.27
2023-02-17T02:28:34.953Z,3.27
2023-02-17T02:29:05.510Z,3.08
2023-02-17T02:29:36.551Z,3.18
2023-02-17T02:30:08.235Z,3.18
2023-02-17T02:30:38.630Z,3.18
2023-02-17T02:31:09.390Z,3.18
2023-02-17T02:31:40.583Z,3.18
2023-02-17T02:32:11.215Z,3.18
2023-02-17T02:32:42.311Z,3.18
2023-02-17T02:33:13.582Z,3.18
2023-02-17T02:33:44.733Z,3.18
2023-02-17T02:34:15.546Z,3.18
2023-02-17T02:34:46.279Z,3.18
2023-02-17T02:35:19.623Z,3.37
2023-02-17T02:35:48.540Z,3.37
2023-02-17T02:36:19.445Z,3.27
2023-02-17T02:36:50.426Z,3.08
2023-02-17T02:37:21.532Z,3.08
2023-02-17T02:37:52.565Z,3.08
2023-02-17T02:38:23.192Z,2.98
2023-02-17T02:38:54.241Z,3.18
2023-02-17T02:39:26.869Z,3.18
2023-02-17T02:39:56.220Z,3.18
2023-02-17T02:40:29.066Z,2.98
2023-02-17T02:40:59.231Z,3.08
2023-02-17T02:41:29.983Z,3.08
2023-02-17T02:42:00.654Z,3.08
2023-02-17T02:42:31.262Z,3.08
2023-02-17T02:43:02.295Z,3.17
2023-02-17T02:43:33.405Z,3.17
2023-02-17T02:44:04.951Z,3.17
2023-02-17T02:44:35.506Z,2.98
2023-02-17T02:45:07.216Z,3.17
2023-02-17T02:45:37.794Z,2.98
2023-02-17T02:46:09.126Z,2.98
2023-02-17T02:46:39.592Z,2.98
2023-02-17T02:47:10.670Z,2.98
2023-02-17T02:47:41.264Z,2.98
2023-02-17T02:48:12.301Z,2.98
2023-02-17T02:48:43.564Z,2.98
2023-02-17T02:49:14.852Z,3.17
2023-02-17T02:49:45.622Z,3.17
2023-02-17T02:50:17.304Z,3.17
2023-02-17T02:50:47.380Z,3.17
2023-02-17T02:51:18.324Z,3.08
2023-02-17T02:51:49.293Z,3.08
2023-02-17T02:52:20.586Z,3.08
2023-02-17T02:52:51.343Z,3.08
2023-02-17T02:53:22.486Z,3.08
2023-02-17T02:53:53.285Z,3.08
2023-02-17T02:54:24.924Z,2.89
2023-02-17T02:54:55.301Z,2.89
2023-02-17T02:55:26.806Z,2.89
2023-02-17T02:55:57.462Z,2.98
2023-02-17T02:56:28.407Z,2.98
2023-02-17T02:56:59.445Z,2.98
2023-02-17T02:57:30.591Z,2.98
2023-02-17T02:58:01.314Z,2.98
2023-02-17T02:58:32.365Z,3.17
2023-02-17T02:59:03.348Z,2.98
2023-02-17T02:59:34.990Z,2.98
2023-02-17T03:00:06.433Z,2.98
2023-02-17T03:00:36.405Z,3.17
2023-02-17T03:01:07.518Z,3.17
2023-02-17T03:01:38.305Z,3.17
2023-02-17T03:02:09.248Z,3.08
2023-02-17T03:02:40.347Z,3.08
2023-02-17T03:03:11.492Z,3.08
2023-02-17T03:03:42.481Z,2.89
2023-02-17T03:04:13.829Z,2.89
2023-02-17T03:04:44.387Z,2.89
2023-02-17T03:05:15.946Z,3.08
2023-02-17T03:05:46.364Z,2.89
2023-02-17T03:06:17.811Z,2.89
2023-02-17T03:06:48.345Z,2.89
2023-02-17T03:07:19.333Z,2.89
2023-02-17T03:07:50.315Z,2.98
2023-02-17T03:08:21.853Z,2.98
2023-02-17T03:08:52.429Z,2.98
2023-02-17T03:09:23.489Z,2.98
2023-02-17T03:09:54.573Z,2.98
2023-02-17T03:10:26.020Z,2.98
2023-02-17T03:10:57.701Z,2.98
2023-02-17T03:11:27.751Z,2.98
2023-02-17T03:11:58.859Z,2.98
2023-02-17T03:12:29.346Z,2.98
2023-02-17T03:13:01.234Z,2.98
2023-02-17T03:13:31.939Z,2.98
2023-02-17T03:14:02.363Z,2.98
2023-02-17T03:14:33.385Z,2.98
2023-02-17T03:15:05.660Z,2.80
2023-02-17T03:15:35.821Z,2.98
2023-02-17T03:16:06.559Z,2.98
2023-02-17T03:16:37.328Z,2.80
2023-02-17T03:17:08.381Z,2.80
2023-02-17T03:17:39.658Z,2.80
2023-02-17T03:18:10.471Z,2.98
2023-02-17T03:18:42.072Z,2.98
2023-02-17T03:19:12.749Z,3.08
2023-02-17T03:19:43.659Z,2.98
2023-02-17T03:20:15.535Z,2.80
2023-02-17T03:20:45.284Z,2.80
2023-02-17T03:21:16.537Z,2.89
2023-02-17T03:21:47.516Z,2.69
2023-02-17T03:22:18.331Z,2.89
2023-02-17T03:22:49.778Z,2.89
2023-02-17T03:23:20.391Z,2.89
2023-02-17T03:23:51.750Z,2.89
2023-02-17T03:24:22.711Z,2.89
2023-02-17T03:24:53.776Z,2.89
2023-02-17T03:25:24.955Z,3.08
2023-02-17T03:25:55.394Z,2.89
2023-02-17T03:26:26.549Z,2.89
2023-02-17T03:26:57.701Z,2.89
2023-02-17T03:27:28.587Z,3.08
2023-02-17T03:27:59.453Z,2.89
2023-02-17T03:28:30.510Z,2.89
2023-02-17T03:29:01.724Z,2.89
2023-02-17T03:29:32.803Z,2.69
2023-02-17T03:30:05.113Z,2.79
2023-02-17T03:30:34.579Z,2.99
2023-02-17T03:31:05.504Z,2.99
2023-02-17T03:31:36.924Z,2.99
2023-02-17T03:32:07.736Z,3.18
2023-02-17T03:32:38.691Z,2.99
2023-02-17T03:33:09.625Z,2.99
2023-02-17T03:33:40.430Z,2.99
2023-02-17T03:34:11.428Z,2.99
2023-02-17T03:34:42.444Z,2.99
2023-02-17T03:35:14.399Z,2.79
2023-02-17T03:35:44.829Z,2.79
2023-02-17T03:36:15.651Z,2.79
2023-02-17T03:36:46.703Z,2.79
2023-02-17T03:37:17.372Z,2.99
2023-02-17T03:37:48.590Z,3.18
2023-02-17T03:38:20.158Z,3.18
2023-02-17T03:38:50.852Z,2.99
2023-02-17T03:39:21.421Z,2.89
2023-02-17T03:39:52.887Z,2.89
2023-02-17T03:40:23.969Z,2.89
2023-02-17T03:40:54.426Z,2.99
2023-02-17T03:41:25.406Z,2.99
2023-02-17T03:41:56.763Z,2.99
2023-02-17T03:42:28.568Z,2.79
2023-02-17T03:42:58.461Z,2.79
2023-02-17T03:43:30.981Z,2.79
2023-02-17T03:44:00.460Z,2.99
2023-02-17T03:44:31.472Z,2.99
2023-02-17T03:45:03.286Z,2.99
2023-02-17T03:45:33.546Z,2.99
2023-02-17T03:46:04.968Z,2.79
2023-02-17T03:46:35.782Z,2.79
2023-02-17T03:47:06.714Z,2.99
2023-02-17T03:47:37.750Z,2.99
2023-02-17T03:48:08.689Z,2.79
2023-02-17T03:48:40.140Z,2.79
2023-02-17T03:49:12.899Z,2.79
2023-02-17T03:49:41.421Z,2.88
2023-02-17T03:50:13.671Z,3.08
2023-02-17T03:50:43.766Z,3.08
2023-02-17T03:51:14.856Z,3.08
2023-02-17T03:51:45.684Z,2.99
2023-02-17T03:52:16.899Z,2.89
2023-02-17T03:52:47.500Z,2.69
2023-02-17T03:53:18.843Z,2.69
2023-02-17T03:53:50.098Z,2.79
2023-02-17T03:54:20.770Z,2.99
2023-02-17T03:54:51.912Z,2.79
2023-02-17T03:55:25.874Z,2.79
2023-02-17T03:55:53.538Z,2.99
2023-02-17T03:56:24.752Z,2.79
2023-02-17T03:56:55.644Z,3.18
2023-02-17T03:57:26.525Z,2.99
2023-02-17T03:57:58.063Z,3.08
2023-02-17T03:58:28.962Z,3.08
2023-02-17T03:58:59.548Z,3.08
2023-02-17T03:59:31.003Z,2.98
2023-02-17T04:00:02.456Z,3.17
2023-02-17T04:00:32.624Z,3.17
2023-02-17T04:01:03.479Z,2.89
2023-02-17T04:01:34.789Z,2.89
2023-02-17T04:02:05.620Z,2.89
2023-02-17T04:02:36.791Z,2.89
2023-02-17T04:03:07.463Z,2.70
2023-02-17T04:03:38.742Z,2.80
2023-02-17T04:04:09.560Z,2.80
2023-02-17T04:04:40.925Z,2.80
2023-02-17T04:05:11.997Z,2.98
2023-02-17T04:05:42.497Z,2.98
2023-02-17T04:06:13.496Z,2.80
2023-02-17T04:06:44.627Z,2.80
2023-02-17T04:07:15.522Z,2.80
2023-02-17T04:07:47.070Z,2.89
2023-02-17T04:08:17.942Z,2.89
2023-02-17T04:08:48.920Z,2.89
2023-02-17T04:09:19.799Z,2.89
2023-02-17T04:09:50.519Z,2.89
2023-02-17T04:10:22.638Z,2.98
2023-02-17T04:10:52.681Z,2.98
2023-02-17T04:11:23.561Z,2.98
2023-02-17T04:11:54.520Z,2.89
2023-02-17T04:12:25.501Z,2.89
2023-02-17T04:12:56.967Z,2.89
2023-02-17T04:13:27.516Z,3.08
2023-02-17T04:14:00.551Z,3.08
2023-02-17T04:14:29.500Z,3.08
2023-02-17T04:15:02.399Z,2.98
2023-02-17T04:15:31.703Z,2.98
2023-02-17T04:16:02.691Z,3.18
2023-02-17T04:16:33.631Z,2.98
2023-02-17T04:17:04.887Z,2.88
2023-02-17T04:17:35.686Z,2.88
2023-02-17T04:18:06.926Z,2.70
2023-02-17T04:18:37.884Z,2.88
2023-02-17T04:19:09.098Z,2.79
2023-02-17T04:19:39.976Z,2.79
2023-02-17T04:20:11.748Z,2.89
2023-02-17T04:20:41.999Z,2.89
2023-02-17T04:21:12.622Z,2.70
2023-02-17T04:21:43.919Z,2.70
2023-02-17T04:22:15.283Z,2.70
2023-02-17T04:22:45.511Z,2.98
2023-02-17T04:23:17.024Z,2.98
2023-02-17T04:23:47.790Z,2.80
2023-02-17T04:24:18.888Z,2.98
2023-02-17T04:24:49.828Z,2.80
2023-02-17T04:25:20.999Z,2.80
2023-02-17T04:25:51.615Z,2.98
2023-02-17T04:26:22.665Z,2.98
2023-02-17T04:26:53.780Z,2.80
2023-02-17T04:27:24.726Z,2.80
2023-02-17T04:27:55.587Z,2.80
2023-02-17T04:28:27.100Z,2.60
2023-02-17T04:28:57.686Z,2.80
2023-02-17T04:29:28.691Z,2.80
2023-02-17T04:29:59.669Z,2.80
2023-02-17T04:30:32.258Z,2.80
2023-02-17T04:31:02.371Z,2.80
2023-02-17T04:31:33.168Z,2.98
2023-02-17T04:32:04.011Z,2.80
2023-02-17T04:32:34.937Z,2.80
2023-02-17T04:33:06.040Z,2.98
2023-02-17T04:33:36.900Z,2.98
2023-02-17T04:34:07.619Z,2.80
2023-02-17T04:34:39.015Z,2.80
2023-02-17T04:35:10.137Z,2.80
2023-02-17T04:35:40.638Z,2.80
2023-02-17T04:36:11.636Z,2.80
2023-02-17T04:36:44.274Z,2.98
2023-02-17T04:37:13.775Z,2.98
2023-02-17T04:37:45.020Z,2.98
2023-02-17T04:38:15.616Z,2.98
2023-02-17T04:38:47.007Z,2.98
2023-02-17T04:39:17.935Z,2.98
2023-02-17T04:39:48.720Z,2.80
2023-02-17T04:40:20.634Z,2.80
2023-02-17T04:40:50.899Z,2.80
2023-02-17T04:41:21.981Z,2.80
2023-02-17T04:41:52.913Z,2.98
2023-02-17T04:42:23.615Z,2.80
2023-02-17T04:42:54.718Z,2.98
2023-02-17T04:43:25.903Z,2.98
2023-02-17T04:43:56.815Z,2.80
2023-02-17T04:44:27.806Z,2.98
2023-02-17T04:44:59.106Z,2.98
2023-02-17T04:45:32.410Z,2.80
2023-02-17T04:46:00.862Z,2.80
2023-02-17T04:46:33.301Z,2.80
2023-02-17T04:47:03.134Z,2.80
2023-02-17T04:47:33.830Z,2.60
2023-02-17T04:48:05.199Z,2.80
2023-02-17T04:48:35.957Z,2.89
2023-02-17T04:49:06.702Z,2.89
2023-02-17T04:49:37.855Z,2.89
2023-02-17T04:50:09.282Z,2.89
2023-02-17T04:50:39.664Z,2.69
2023-02-17T04:51:11.001Z,2.89
2023-02-17T04:51:41.899Z,2.69
2023-02-17T04:52:13.176Z,2.79
2023-02-17T04:52:43.694Z,2.79
2023-02-17T04:53:14.944Z,2.79
2023-02-17T04:53:45.664Z,2.79
2023-02-17T04:54:16.686Z,2.79
2023-02-17T04:54:47.959Z,2.79
2023-02-17T04:55:20.131Z,2.79
2023-02-17T04:55:49.741Z,2.99
2023-02-17T04:56:20.703Z,2.79
2023-02-17T04:56:51.809Z,2.99
2023-02-17T04:57:22.925Z,3.08
2023-02-17T04:57:54.080Z,3.08
2023-02-17T04:58:24.877Z,2.89
2023-02-17T04:58:56.025Z,2.80
2023-02-17T04:59:26.689Z,2.80
2023-02-17T04:59:58.315Z,2.98
2023-02-17T05:00:30.638Z,2.80
2023-02-17T05:00:59.904Z,2.80
2023-02-17T05:01:30.818Z,2.80
2023-02-17T05:02:01.681Z,2.89
2023-02-17T05:02:32.944Z,2.89
2023-02-17T05:03:04.019Z,2.89
2023-02-17T05:03:35.013Z,2.89
2023-02-17T05:04:06.036Z,2.89
2023-02-17T05:04:37.297Z,2.89
2023-02-17T05:05:08.111Z,2.89
2023-02-17T05:05:39.161Z,2.89
2023-02-17T05:06:10.626Z,2.89
2023-02-17T05:06:40.877Z,2.89
2023-02-17T05:07:11.791Z,2.89
2023-02-17T05:07:42.757Z,2.89
2023-02-17T05:08:13.894Z,2.89
2023-02-17T05:08:45.008Z,2.89
2023-02-17T05:09:16.101Z,2.69
2023-02-17T05:09:47.360Z,2.89
2023-02-17T05:10:18.855Z,2.89
2023-02-17T05:10:48.757Z,2.89
2023-02-17T05:11:20.140Z,2.89
2023-02-17T05:11:50.694Z,2.99
2023-02-17T05:12:21.769Z,2.99
2023-02-17T05:12:52.742Z,2.99
2023-02-17T05:13:23.746Z,3.08
2023-02-17T05:13:54.941Z,3.08
2023-02-17T05:14:25.939Z,2.89
2023-02-17T05:14:57.367Z,3.08
2023-02-17T05:15:29.366Z,3.08
2023-02-17T05:15:59.088Z,2.89
2023-02-17T05:16:29.908Z,2.89
2023-02-17T05:17:01.624Z,2.89
2023-02-17T05:17:31.767Z,2.69
2023-02-17T05:18:03.957Z,2.99
2023-02-17T05:18:33.764Z,2.99
2023-02-17T05:19:05.224Z,2.99
2023-02-17T05:19:36.037Z,3.18
2023-02-17T05:20:07.985Z,2.99
2023-02-17T05:20:37.785Z,2.99
2023-02-17T05:21:08.734Z,3.08
2023-02-17T05:21:39.982Z,3.08
2023-02-17T05:22:11.072Z,2.89
2023-02-17T05:22:42.278Z,2.89
2023-02-17T05:23:13.454Z,2.99
2023-02-17T05:23:44.217Z,2.99
2023-02-17T05:24:15.118Z,3.18
2023-02-17T05:24:46.224Z,2.99
2023-02-17T05:25:18.288Z,2.99
2023-02-17T05:25:48.265Z,3.18
2023-02-17T05:26:18.958Z,2.99
2023-02-17T05:26:50.278Z,3.18
2023-02-17T05:27:21.014Z,3.18
2023-02-17T05:27:52.997Z,3.08
2023-02-17T05:28:22.846Z,3.08
2023-02-17T05:28:54.044Z,3.08
2023-02-17T05:29:25.099Z,2.89
2023-02-17T05:29:55.840Z,3.08
2023-02-17T05:30:28.314Z,3.08
2023-02-17T05:30:58.397Z,3.08
2023-02-17T05:31:29.536Z,3.08
2023-02-17T05:32:00.534Z,3.08
2023-02-17T05:32:30.728Z,3.08
2023-02-17T05:33:02.183Z,3.08
2023-02-17T05:33:32.778Z,3.08
2023-02-17T05:34:03.962Z,3.08
2023-02-17T05:34:35.725Z,3.08
2023-02-17T05:35:06.237Z,3.08
2023-02-17T05:35:37.042Z,3.08
2023-02-17T05:36:08.016Z,3.18
2023-02-17T05:36:38.717Z,3.18
2023-02-17T05:37:10.731Z,3.18
2023-02-17T05:37:40.962Z,3.56
2023-02-17T05:38:11.944Z,3.27
2023-02-17T05:38:43.356Z,3.27
2023-02-17T05:39:14.245Z,3.27
2023-02-17T05:39:45.118Z,3.17
2023-02-17T05:40:17.239Z,2.98
2023-02-17T05:40:47.185Z,3.27
2023-02-17T05:41:17.878Z,3.27
2023-02-17T05:41:48.934Z,3.27
2023-02-17T05:42:20.068Z,3.08
2023-02-17T05:42:50.953Z,3.08
2023-02-17T05:43:21.935Z,3.08
2023-02-17T05:43:53.038Z,3.08
2023-02-17T05:44:24.460Z,3.27
2023-02-17T05:44:55.267Z,3.08
2023-02-17T05:45:27.520Z,3.08
2023-02-17T05:45:57.312Z,3.27
2023-02-17T05:46:27.929Z,3.27
2023-02-17T05:46:58.938Z,3.27
2023-02-17T05:47:30.081Z,3.27
2023-02-17T05:48:00.960Z,3.27
2023-02-17T05:48:33.222Z,3.27
2023-02-17T05:49:02.802Z,3.27
2023-02-17T05:49:35.603Z,3.27
2023-02-17T05:50:05.424Z,3.27
2023-02-17T05:50:36.467Z,3.27
2023-02-17T05:51:07.176Z,3.47
2023-02-17T05:51:38.280Z,3.27
2023-02-17T05:52:09.906Z,3.17
2023-02-17T05:52:40.263Z,3.17
2023-02-17T05:53:11.253Z,3.17
2023-02-17T05:53:42.691Z,3.17
2023-02-17T05:54:13.630Z,3.17
2023-02-17T05:54:44.792Z,3.17
2023-02-17T05:55:15.391Z,3.17
2023-02-17T05:55:47.941Z,3.37
2023-02-17T05:56:16.848Z,3.17
2023-02-17T05:56:48.398Z,3.37
2023-02-17T05:57:19.270Z,3.08
2023-02-17T05:57:50.035Z,3.27
2023-02-17T05:58:21.617Z,3.17
2023-02-17T05:58:52.044Z,3.17
2023-02-17T05:59:23.108Z,3.17
2023-02-17T05:59:54.314Z,3.17
2023-02-17T06:00:29.124Z,3.37
2023-02-17T06:00:56.682Z,3.37
2023-02-17T06:01:26.944Z,3.46
2023-02-17T06:01:58.010Z,3.27
2023-02-17T06:02:29.604Z,3.27
2023-02-17T06:02:59.924Z,3.27
2023-02-17T06:03:31.100Z,3.27
2023-02-17T06:04:02.066Z,3.27
2023-02-17T06:04:33.747Z,3.08
2023-02-17T06:05:04.758Z,3.17
2023-02-17T06:05:34.904Z,3.17
2023-02-17T06:06:06.301Z,3.27
2023-02-17T06:06:37.356Z,3.27
2023-02-17T06:07:08.072Z,3.27
2023-02-17T06:07:38.881Z,3.27
2023-02-17T06:08:10.205Z,3.27
2023-02-17T06:08:41.231Z,3.47
2023-02-17T06:09:12.266Z,3.27
2023-02-17T06:09:43.349Z,3.47
2023-02-17T06:10:14.532Z,3.27
2023-02-17T06:10:44.899Z,3.27
2023-02-17T06:11:16.068Z,3.27
2023-02-17T06:11:47.403Z,3.47
2023-02-17T06:12:18.420Z,3.27
2023-02-17T06:12:49.181Z,3.27
2023-02-17T06:13:20.282Z,3.27
2023-02-17T06:13:50.907Z,3.47
2023-02-17T06:14:22.035Z,3.47
2023-02-17T06:14:53.539Z,3.47
2023-02-17T06:15:25.673Z,3.47
2023-02-17T06:15:55.118Z,3.37
2023-02-17T06:16:26.368Z,3.37
2023-02-17T06:16:57.015Z,3.17
2023-02-17T06:17:28.426Z,3.37
2023-02-17T06:17:59.488Z,3.37
2023-02-17T06:18:30.312Z,3.56
2023-02-17T06:19:01.102Z,3.47
2023-02-17T06:19:32.083Z,3.47
2023-02-17T06:20:04.808Z,3.66
2023-02-17T06:20:34.339Z,3.37
2023-02-17T06:21:06.052Z,3.47
2023-02-17T06:21:36.307Z,3.47
2023-02-17T06:22:07.403Z,3.47
2023-02-17T06:22:38.088Z,3.47
2023-02-17T06:23:09.172Z,3.27
2023-02-17T06:23:40.404Z,3.27
2023-02-17T06:24:11.350Z,3.27
2023-02-17T06:24:41.980Z,3.27
2023-02-17T06:25:13.444Z,3.36
2023-02-17T06:25:44.164Z,3.56
2023-02-17T06:26:14.978Z,3.56
2023-02-17T06:26:46.460Z,3.56
2023-02-17T06:27:17.032Z,3.66
2023-02-17T06:27:48.147Z,3.66
2023-02-17T06:28:19.244Z,3.47
2023-02-17T06:28:50.789Z,3.56
2023-02-17T06:29:21.270Z,3.56
2023-02-17T06:29:52.289Z,3.56
2023-02-17T06:30:24.521Z,3.75
2023-02-17T06:30:54.532Z,3.56
2023-02-17T06:31:25.441Z,3.56
2023-02-17T06:31:56.559Z,3.37
2023-02-17T06:32:27.323Z,3.37
2023-02-17T06:32:58.258Z,3.37
2023-02-17T06:33:29.514Z,3.47
2023-02-17T06:34:00.383Z,3.47
2023-02-17T06:34:31.661Z,3.56
2023-02-17T06:35:02.550Z,3.56
2023-02-17T06:35:33.491Z,3.75
2023-02-17T06:36:04.734Z,3.56
2023-02-17T06:36:35.110Z,3.56
2023-02-17T06:37:06.061Z,3.75
2023-02-17T06:37:37.117Z,3.47
2023-02-17T06:38:08.138Z,3.66
2023-02-17T06:38:39.047Z,3.66
2023-02-17T06:39:10.269Z,3.47
2023-02-17T06:39:41.697Z,3.47
2023-02-17T06:40:13.065Z,3.56
2023-02-17T06:40:43.186Z,3.46
2023-02-17T06:41:14.288Z,3.66
2023-02-17T06:41:45.346Z,3.66
2023-02-17T06:42:16.109Z,3.66
2023-02-17T06:42:47.050Z,3.66
2023-02-17T06:43:18.135Z,3.66
2023-02-17T06:43:49.160Z,3.66
2023-02-17T06:44:20.157Z,3.66
2023-02-17T06:44:51.718Z,3.66
2023-02-17T06:45:23.837Z,3.46
2023-02-17T06:45:53.293Z,3.46
2023-02-17T06:46:24.407Z,3.66
2023-02-17T06:46:55.375Z,3.66
2023-02-17T06:47:26.505Z,3.66
2023-02-17T06:47:57.424Z,3.66
2023-02-17T06:48:28.458Z,3.66
2023-02-17T06:48:59.264Z,3.66
2023-02-17T06:49:30.279Z,3.66
2023-02-17T06:50:01.756Z,3.66
2023-02-17T06:50:32.171Z,3.66
2023-02-17T06:51:03.097Z,3.66
2023-02-17T06:51:36.039Z,3.85
2023-02-17T06:52:05.543Z,3.66
2023-02-17T06:52:36.827Z,3.66